Time;durP1;ratioP1;P1;durP2;ratioP2;P2;SDS_P1;SDS_P2;PMS_P1;PMS_P2;Temp;Humidity;BMP_temperature;BMP_pressure;BME280_temperature;BME280_humidity;BME280_pressure;Samples;Min_cycle;Max_cycle;Signal;HPM_P1;HPM_P2
2022/03/30 00:01:40;;;;;;;;;16.20;15.80;;;;;8.60;62.54;98996.66;5056274;28;9000;-63
2022/03/30 00:04:08;;;;;;;;;16.80;16.40;;;;;8.57;62.62;98997.75;5055872;28;8867;-65
2022/03/30 00:06:35;;;;;;;;;17.60;15.60;;;;;8.58;62.57;98995.94;5053651;28;8861;-64
2022/03/30 00:09:03;;;;;;;;;13.20;12.60;;;;;8.59;62.52;98992.31;5054835;28;9554;-63
2022/03/30 00:11:31;;;;;;;;;18.80;15.80;;;;;8.60;62.33;98991.34;5056021;28;8862;-63
2022/03/30 00:13:58;;;;;;;;;14.60;12.80;;;;;8.60;62.82;98986.03;5055510;28;8830;-63
2022/03/30 00:16:26;;;;;;;;;17.00;16.00;;;;;8.61;62.67;98983.25;5056391;28;8860;-64
2022/03/30 00:18:54;;;;;;;;;20.60;18.40;;;;;8.62;62.56;98984.09;5056503;28;8862;-64
2022/03/30 00:21:22;;;;;;;;;16.00;15.60;;;;;8.62;62.32;98984.09;5055940;28;8838;-64
2022/03/30 00:23:50;;;;;;;;;14.80;14.60;;;;;8.63;62.30;98980.44;5056028;28;8876;-63
2022/03/30 00:26:17;;;;;;;;;18.80;17.40;;;;;8.62;62.29;98979.63;5055761;28;8826;-64
2022/03/30 00:28:45;;;;;;;;;17.80;16.20;;;;;8.59;62.70;98979.88;5056101;28;8976;-63
2022/03/30 00:31:15;;;;;;;;;19.20;18.20;;;;;8.59;62.82;98974.56;5055327;28;8861;-64
2022/03/30 00:33:43;;;;;;;;;17.40;15.80;;;;;8.55;62.30;98978.47;5055434;28;8826;-63
2022/03/30 00:36:11;;;;;;;;;22.80;19.40;;;;;8.53;62.54;98983.06;5055530;28;9526;-63
2022/03/30 00:38:38;;;;;;;;;22.80;17.80;;;;;8.50;62.68;98975.38;5084002;28;8959;-63
2022/03/30 00:41:06;;;;;;;;;18.40;16.00;;;;;8.50;62.75;98978.03;5096071;28;8864;-64
2022/03/30 00:43:34;;;;;;;;;12.60;11.60;;;;;8.50;62.69;98975.38;5095115;28;8837;-64
2022/03/30 00:46:02;;;;;;;;;24.40;18.80;;;;;8.51;62.71;98977.03;5093597;28;8843;-63
2022/03/30 00:48:30;;;;;;;;;12.80;12.20;;;;;8.50;62.64;98970.06;5095197;28;8852;-63
2022/03/30 00:50:58;;;;;;;;;22.20;19.40;;;;;8.50;62.71;98972.72;5096155;28;8846;-63
2022/03/30 00:53:25;;;;;;;;;16.00;15.40;;;;;8.49;62.77;98964.88;5095037;28;8824;-64
2022/03/30 00:55:53;;;;;;;;;12.60;10.80;;;;;8.45;63.09;98966.97;5095444;28;8828;-63
2022/03/30 00:58:21;;;;;;;;;21.20;19.40;;;;;8.43;63.03;98966.25;5095253;28;8836;-63
2022/03/30 01:00:49;;;;;;;;;25.60;23.40;;;;;8.42;62.88;98961.09;5095619;28;8824;-63
2022/03/30 01:03:17;;;;;;;;;17.60;16.00;;;;;8.40;63.09;98960.38;5095918;28;8831;-64
2022/03/30 01:05:45;;;;;;;;;18.80;18.80;;;;;8.38;63.07;98960.50;5095470;28;8843;-62
2022/03/30 01:08:13;;;;;;;;;19.00;15.60;;;;;8.38;63.15;98954.38;5095268;28;8835;-63
2022/03/30 01:10:40;;;;;;;;;16.40;15.00;;;;;8.37;63.13;98950.88;5095907;28;8857;-64
2022/03/30 01:13:08;;;;;;;;;12.20;10.00;;;;;8.36;62.96;98951.03;5095442;28;8874;-64
2022/03/30 01:15:37;;;;;;;;;15.40;15.00;;;;;8.34;63.14;98959.09;5095937;28;8974;-63
2022/03/30 01:18:05;;;;;;;;;18.00;15.80;;;;;8.33;63.03;98952.13;5095552;28;8955;-63
2022/03/30 01:20:33;;;;;;;;;12.20;11.20;;;;;8.31;62.90;98948.78;5095395;28;8827;-64
2022/03/30 01:23:01;;;;;;;;;10.80;10.40;;;;;8.29;63.28;98953.34;5094762;28;8932;-62
2022/03/30 01:25:29;;;;;;;;;21.40;19.80;;;;;8.25;63.59;98954.59;5095784;28;8875;-63
2022/03/30 01:27:57;;;;;;;;;14.00;12.60;;;;;8.21;63.22;98945.22;5094683;28;8815;-64
2022/03/30 01:33:12;;;;;;;;;9.40;9.40;;;;;8.15;63.38;98948.34;5077494;28;8835;-63
2022/03/30 01:35:39;;;;;;;;;12.00;10.60;;;;;8.11;63.38;98946.94;5093994;28;8867;-63
2022/03/30 01:38:07;;;;;;;;;7.40;6.20;;;;;8.08;63.31;98941.06;5094364;28;9598;-63
2022/03/30 01:40:35;;;;;;;;;19.00;16.60;;;;;8.02;63.62;98937.13;5095110;28;8835;-64
2022/03/30 01:43:03;;;;;;;;;12.00;11.60;;;;;7.98;64.04;98934.88;5092569;28;8878;-63
2022/03/30 01:45:31;;;;;;;;;13.40;13.40;;;;;7.94;64.14;98929.00;5094016;28;8840;-63
2022/03/30 01:47:59;;;;;;;;;18.00;15.20;;;;;7.92;63.98;98928.25;5094031;28;8840;-63
2022/03/30 01:50:27;;;;;;;;;13.00;11.40;;;;;7.90;63.98;98924.91;5095145;28;8843;-63
2022/03/30 01:52:55;;;;;;;;;14.60;14.60;;;;;7.90;63.76;98924.91;5095059;28;8820;-63
2022/03/30 01:55:23;;;;;;;;;12.80;9.80;;;;;7.86;63.44;98918.22;5095202;28;8958;-64
2022/03/30 01:57:50;;;;;;;;;16.40;16.00;;;;;7.83;64.25;98909.69;5095285;28;8835;-64
2022/03/30 02:00:19;;;;;;;;;10.80;10.80;;;;;7.78;64.07;98907.41;5095032;28;8849;-64
2022/03/30 02:02:47;;;;;;;;;14.20;12.40;;;;;7.75;64.28;98907.66;5095352;28;8835;-63
2022/03/30 02:05:17;;;;;;;;;12.00;11.20;;;;;7.73;63.96;98906.97;5097309;28;9478;-63
2022/03/30 02:07:45;;;;;;;;;12.00;9.20;;;;;7.70;64.25;98909.84;5098857;28;8970;-64
2022/03/30 02:10:13;;;;;;;;;15.20;14.60;;;;;7.65;64.27;98915.69;5099096;28;8955;-63
2022/03/30 02:12:40;;;;;;;;;14.20;13.40;;;;;7.60;64.29;98907.28;5098566;28;8847;-62
2022/03/30 02:15:09;;;;;;;;;15.40;12.00;;;;;7.57;64.70;98902.25;5098599;28;8819;-64
2022/03/30 02:17:37;;;;;;;;;16.20;14.20;;;;;7.54;64.21;98907.78;5098508;28;8845;-63
2022/03/30 02:20:05;;;;;;;;;12.20;10.60;;;;;7.51;64.43;98906.22;5099058;28;9536;-63
2022/03/30 02:22:33;;;;;;;;;3.60;3.00;;;;;7.48;64.53;98903.00;5098516;28;9490;-64
2022/03/30 02:25:00;;;;;;;;;12.60;12.40;;;;;7.44;64.84;98898.94;5098789;28;8839;-64
2022/03/30 02:27:28;;;;;;;;;13.40;10.00;;;;;7.36;65.14;98888.16;5098374;28;8912;-64
2022/03/30 02:29:56;;;;;;;;;12.60;10.00;;;;;7.30;65.18;98889.50;5098658;28;8831;-63
2022/03/30 02:32:24;;;;;;;;;12.20;12.00;;;;;7.24;64.90;98889.16;5098695;28;8856;-63
2022/03/30 02:34:51;;;;;;;;;15.60;14.20;;;;;7.18;65.66;98887.00;5098213;28;8905;-64
2022/03/30 02:37:19;;;;;;;;;16.00;13.40;;;;;7.12;65.11;98887.53;5098253;28;9508;-63
2022/03/30 02:39:47;;;;;;;;;13.40;11.60;;;;;7.08;65.07;98884.31;5097050;28;8974;-62
2022/03/30 02:42:14;;;;;;;;;9.40;8.20;;;;;7.03;65.31;98875.91;5095792;28;8874;-64
2022/03/30 02:44:42;;;;;;;;;18.40;14.20;;;;;6.96;65.64;98874.72;5095092;28;8916;-64
2022/03/30 02:47:10;;;;;;;;;15.80;15.80;;;;;6.90;65.78;98869.09;5095693;28;8849;-63
2022/03/30 02:49:38;;;;;;;;;13.00;10.80;;;;;6.85;65.94;98866.84;5095744;28;8862;-63
2022/03/30 02:52:05;;;;;;;;;12.60;12.20;;;;;6.82;65.50;98860.94;5095244;28;8839;-63
2022/03/30 02:54:33;;;;;;;;;11.80;9.20;;;;;6.80;65.63;98858.41;5095401;28;8832;-63
2022/03/30 02:57:01;;;;;;;;;14.60;12.60;;;;;6.77;65.83;98863.13;5098202;28;8834;-63
2022/03/30 02:59:29;;;;;;;;;12.00;10.40;;;;;6.78;66.00;98856.88;5098064;28;8803;-63
2022/03/30 03:01:59;;;;;;;;;13.80;12.80;;;;;6.77;65.68;98855.19;5098069;28;8832;-63
2022/03/30 03:04:33;;;;;;;;;10.40;10.40;;;;;6.74;65.69;98850.97;5097084;28;8858;-63
2022/03/30 03:07:01;;;;;;;;;10.40;9.40;;;;;6.71;65.74;98848.59;5097984;28;8835;-63
2022/03/30 03:09:29;;;;;;;;;9.60;9.60;;;;;6.65;65.72;98846.44;5098021;28;8862;-63
2022/03/30 03:11:56;;;;;;;;;13.00;12.40;;;;;6.57;66.04;98850.66;5097991;28;8847;-64
2022/03/30 03:14:24;;;;;;;;;16.00;12.60;;;;;6.47;65.95;98847.94;5097108;28;8854;-64
2022/03/30 03:16:51;;;;;;;;;9.40;7.80;;;;;6.38;66.08;98846.00;5096638;28;8846;-63
2022/03/30 03:19:19;;;;;;;;;10.00;9.00;;;;;6.29;66.40;98848.56;5097960;28;8916;-63
2022/03/30 03:21:47;;;;;;;;;15.40;13.00;;;;;6.22;66.91;98850.03;5097629;28;8836;-62
2022/03/30 03:24:15;;;;;;;;;7.00;6.00;;;;;6.13;67.04;98841.00;5097089;28;9598;-62
2022/03/30 03:26:42;;;;;;;;;17.60;14.20;;;;;6.05;67.01;98842.56;5097125;28;8878;-64
2022/03/30 03:29:10;;;;;;;;;15.20;13.00;;;;;6.03;67.53;98845.34;5097460;28;8844;-63
2022/03/30 03:31:38;;;;;;;;;12.20;10.40;;;;;5.98;66.87;98839.59;5096916;28;8822;-64
2022/03/30 03:34:05;;;;;;;;;12.40;12.00;;;;;5.92;67.09;98836.59;5097454;28;8836;-63
2022/03/30 03:36:33;;;;;;;;;16.20;12.80;;;;;5.86;67.12;98835.25;5097026;28;8989;-63
2022/03/30 03:39:02;;;;;;;;;13.20;9.60;;;;;5.83;67.59;98827.56;5097180;28;9516;-63
2022/03/30 03:41:29;;;;;;;;;12.40;11.60;;;;;5.83;67.77;98829.34;5097631;28;8852;-63
2022/03/30 03:43:57;;;;;;;;;18.20;16.80;;;;;5.81;67.72;98826.00;5097219;28;8827;-63
2022/03/30 03:46:24;;;;;;;;;15.00;13.40;;;;;5.78;67.26;98818.31;5097040;28;8828;-64
2022/03/30 03:48:53;;;;;;;;;11.20;9.40;;;;;5.72;67.17;98824.06;5097084;28;8827;-63
2022/03/30 03:51:23;;;;;;;;;15.40;13.60;;;;;5.68;67.22;98823.44;5097160;28;8858;-64
2022/03/30 03:53:51;;;;;;;;;9.00;9.00;;;;;5.65;67.63;98818.44;5096909;28;8835;-65
2022/03/30 03:56:19;;;;;;;;;12.80;10.00;;;;;5.62;67.73;98825.75;5095058;28;8835;-64
2022/03/30 03:58:48;;;;;;;;;9.20;8.40;;;;;5.60;67.57;98827.63;5095968;28;8834;-63
2022/03/30 04:01:16;;;;;;;;;12.80;10.40;;;;;5.55;67.78;98824.53;5095896;28;8840;-67
2022/03/30 04:03:44;;;;;;;;;12.00;10.80;;;;;5.53;67.93;98822.00;5095981;28;8981;-63
2022/03/30 04:06:12;;;;;;;;;15.60;12.80;;;;;5.52;67.69;98822.09;5095880;28;8847;-64
2022/03/30 04:08:40;;;;;;;;;12.40;11.20;;;;;5.51;68.01;98821.28;5095225;28;8839;-63
2022/03/30 04:11:07;;;;;;;;;10.40;9.80;;;;;5.53;67.41;98818.53;5093091;28;8840;-64
2022/03/30 04:13:36;;;;;;;;;10.80;9.80;;;;;5.53;67.89;98815.91;5092266;28;8828;-65
2022/03/30 04:16:03;;;;;;;;;6.80;4.40;;;;;5.51;67.83;98820.44;5092187;28;8840;-64
2022/03/30 04:18:31;;;;;;;;;7.00;6.60;;;;;5.48;67.82;98818.88;5091958;28;8839;-64
2022/03/30 04:20:59;;;;;;;;;13.00;10.60;;;;;5.45;67.95;98819.13;5091990;28;8839;-64
2022/03/30 04:23:27;;;;;;;;;10.40;9.40;;;;;5.45;67.93;98820.91;5092725;28;8834;-62
2022/03/30 04:25:54;;;;;;;;;13.40;10.80;;;;;5.48;67.52;98823.31;5094879;28;9532;-63
2022/03/30 04:28:22;;;;;;;;;16.00;15.00;;;;;5.46;68.03;98817.31;5095656;28;8846;-64
2022/03/30 04:30:50;;;;;;;;;9.60;9.60;;;;;5.42;68.18;98811.44;5096271;28;8839;-64
2022/03/30 04:33:17;;;;;;;;;14.20;11.60;;;;;5.40;68.35;98808.06;5095338;28;8840;-63
2022/03/30 04:35:45;;;;;;;;;14.40;13.40;;;;;5.42;67.76;98808.81;5095484;28;8835;-63
2022/03/30 04:38:14;;;;;;;;;4.00;4.00;;;;;5.46;68.19;98806.78;5095815;28;8844;-63
2022/03/30 04:40:41;;;;;;;;;15.00;13.60;;;;;5.44;67.65;98808.66;5095649;28;8842;-63
2022/03/30 04:43:09;;;;;;;;;14.60;12.00;;;;;5.40;68.13;98799.31;5095896;28;8881;-63
2022/03/30 04:45:37;;;;;;;;;14.80;12.60;;;;;5.37;67.53;98803.03;5095850;28;8857;-62
2022/03/30 04:48:05;;;;;;;;;12.40;10.80;;;;;5.37;67.63;98796.91;5095992;28;8847;-63
2022/03/30 04:50:34;;;;;;;;;7.40;7.00;;;;;5.35;68.26;98794.41;5095105;28;8839;-63
2022/03/30 04:53:01;;;;;;;;;12.60;12.00;;;;;5.35;67.72;98794.41;5095833;28;8878;-63
2022/03/30 04:55:29;;;;;;;;;12.40;11.80;;;;;5.35;68.04;98794.41;5095635;28;8859;-64
2022/03/30 04:57:57;;;;;;;;;9.40;8.80;;;;;5.34;68.19;98791.88;5095883;28;8840;-63
2022/03/30 05:00:25;;;;;;;;;10.40;8.60;;;;;5.32;68.19;98789.34;5094900;28;8962;-63
2022/03/30 05:02:52;;;;;;;;;5.60;5.20;;;;;5.30;67.97;98793.91;5095580;28;9150;-63
2022/03/30 05:05:20;;;;;;;;;10.80;9.60;;;;;5.31;67.84;98798.22;5093921;28;8831;-63
2022/03/30 05:07:48;;;;;;;;;6.60;6.00;;;;;5.29;67.83;98797.50;5094493;28;8847;-64
2022/03/30 05:10:15;;;;;;;;;10.80;9.60;;;;;5.27;68.19;98790.66;5095426;28;8862;-63
2022/03/30 05:12:43;;;;;;;;;10.80;10.00;;;;;5.22;67.88;98792.78;5094512;28;8856;-64
2022/03/30 05:15:11;;;;;;;;;12.80;12.20;;;;;5.18;67.78;98796.63;5094748;28;8827;-63
2022/03/30 05:17:39;;;;;;;;;14.80;12.00;;;;;5.13;68.38;98788.22;5094332;28;8843;-63
2022/03/30 05:20:07;;;;;;;;;7.00;5.20;;;;;5.09;68.27;98792.06;5091971;28;8966;-63
2022/03/30 05:22:35;;;;;;;;;4.40;3.80;;;;;5.05;68.22;98787.97;5090963;28;8831;-63
2022/03/30 05:25:03;;;;;;;;;11.00;8.40;;;;;5.02;68.82;98791.66;5091117;28;8932;-63
2022/03/30 05:27:30;;;;;;;;;8.80;6.40;;;;;5.01;68.28;98789.16;5091307;28;8865;-64
2022/03/30 05:29:58;;;;;;;;;16.40;13.80;;;;;4.97;68.63;98793.84;5091537;28;8846;-63
2022/03/30 05:32:26;;;;;;;;;7.00;7.00;;;;;4.92;68.58;98790.69;5090833;28;8875;-63
2022/03/30 05:34:53;;;;;;;;;11.40;6.80;;;;;4.88;68.66;98801.59;5091714;28;8881;-63
2022/03/30 05:37:25;;;;;;;;;5.80;5.80;;;;;4.84;68.72;98797.47;5090840;28;8973;-64
2022/03/30 05:39:53;;;;;;;;;9.60;9.20;;;;;4.79;68.95;98795.19;5090710;28;8840;-63
2022/03/30 05:42:21;;;;;;;;;10.00;8.60;;;;;4.78;68.40;98797.97;5090850;28;9143;-64
2022/03/30 05:44:49;;;;;;;;;11.60;11.60;;;;;4.75;68.73;98798.19;5090869;28;8978;-63
2022/03/30 05:47:16;;;;;;;;;10.60;8.40;;;;;4.76;68.81;98789.31;5092224;28;8835;-62
2022/03/30 05:49:44;;;;;;;;;13.80;12.40;;;;;4.83;68.57;98795.81;5091142;28;8849;-64
2022/03/30 05:52:12;;;;;;;;;15.80;15.00;;;;;4.91;68.94;98793.44;5090263;28;8839;-64
2022/03/30 05:54:40;;;;;;;;;13.20;11.80;;;;;4.93;68.63;98799.47;5089471;28;9505;-63
2022/03/30 05:57:08;;;;;;;;;14.20;11.40;;;;;4.93;68.99;98797.66;5090655;28;8861;-63
2022/03/30 05:59:37;;;;;;;;;9.20;8.80;;;;;4.94;68.33;98801.13;5088229;28;8858;-64
2022/03/30 06:02:04;;;;;;;;;14.20;12.40;;;;;4.94;68.63;98809.06;5087161;28;8840;-64
2022/03/30 06:04:32;;;;;;;;;15.20;12.00;;;;;4.96;68.55;98801.84;5089701;28;8970;-64
2022/03/30 06:07:00;;;;;;;;;12.00;12.00;;;;;4.98;68.82;98799.94;5091134;28;8823;-65
2022/03/30 06:09:28;;;;;;;;;13.80;12.20;;;;;5.02;67.86;98796.94;5091021;28;8967;-63
2022/03/30 06:12:07;;;;;;;;;11.60;10.20;;;;;5.11;67.61;98795.41;5092238;28;8860;-64
2022/03/30 06:14:34;;;;;;;;;6.00;6.00;;;;;5.27;67.40;98791.50;5091560;28;8824;-63
2022/03/30 06:17:03;;;;;;;;;7.40;4.40;;;;;5.43;67.10;98794.66;5089965;28;8832;-63
2022/03/30 06:19:31;;;;;;;;;7.00;6.40;;;;;5.55;66.63;98790.22;5089010;28;8890;-63
2022/03/30 06:21:58;;;;;;;;;21.20;16.00;;;;;5.65;66.75;98791.16;5089332;28;9504;-63
2022/03/30 06:24:27;;;;;;;;;14.60;13.80;;;;;5.78;67.20;98794.53;5089942;28;8916;-63
2022/03/30 06:26:54;;;;;;;;;14.40;12.80;;;;;5.90;66.53;98797.06;5090542;28;8869;-63
2022/03/30 06:29:22;;;;;;;;;12.20;10.40;;;;;6.02;66.94;98789.97;5089635;28;8862;-63
2022/03/30 06:31:52;;;;;;;;;25.80;24.00;;;;;6.09;66.68;98801.75;5091726;28;8812;-64
2022/03/30 06:34:20;;;;;;;;;7.40;6.40;;;;;6.15;65.90;98795.97;5092570;28;8820;-63
2022/03/30 06:36:48;;;;;;;;;13.40;12.20;;;;;6.20;66.49;98799.06;5093184;28;8823;-64
2022/03/30 06:39:16;;;;;;;;;15.40;13.40;;;;;6.23;66.57;98802.31;5092656;28;8857;-63
2022/03/30 06:41:44;;;;;;;;;12.20;11.40;;;;;6.20;66.90;98799.91;5092215;28;9224;-64
2022/03/30 06:44:12;;;;;;;;;15.00;14.20;;;;;6.20;66.97;98794.63;5092391;28;8831;-63
2022/03/30 06:46:39;;;;;;;;;12.40;12.00;;;;;6.21;66.64;98800.78;5093075;28;8861;-63
2022/03/30 06:49:09;;;;;;;;;15.60;10.80;;;;;6.19;67.00;98803.53;5091881;28;9620;-63
2022/03/30 06:51:37;;;;;;;;;9.80;9.40;;;;;6.17;66.80;98797.53;5092588;28;8843;-64
2022/03/30 06:54:05;;;;;;;;;15.60;15.20;;;;;6.18;66.80;98801.00;5093679;28;9636;-63
2022/03/30 06:56:33;;;;;;;;;16.80;12.80;;;;;6.24;66.74;98795.22;5095002;28;8823;-65
2022/03/30 06:59:00;;;;;;;;;12.00;10.00;;;;;6.27;67.08;98794.97;5093707;28;8970;-64
2022/03/30 07:01:34;;;;;;;;;15.00;14.00;;;;;6.33;66.67;98794.47;5094075;28;8844;-63
2022/03/30 07:04:03;;;;;;;;;18.60;15.60;;;;;6.33;66.79;98792.69;5094996;28;8840;-63
2022/03/30 07:06:30;;;;;;;;;13.00;12.80;;;;;6.32;67.10;98793.66;5094821;28;8847;-63
2022/03/30 07:11:43;;;;;;;;;3.80;3.40;;;;;6.39;66.83;98794.84;5092477;28;8867;-63
2022/03/30 07:14:11;;;;;;;;;16.60;14.20;;;;;6.46;66.67;98795.19;5093444;28;8823;-63
2022/03/30 07:16:39;;;;;;;;;9.20;7.80;;;;;6.45;66.37;98794.31;5093836;28;8857;-63
2022/03/30 07:19:07;;;;;;;;;17.20;14.80;;;;;6.47;66.50;98788.91;5093981;28;8856;-63
2022/03/30 07:21:34;;;;;;;;;18.00;17.00;;;;;6.57;66.53;98800.41;5094651;28;8839;-64
2022/03/30 07:24:02;;;;;;;;;16.60;13.40;;;;;6.69;66.00;98802.06;5095387;28;8831;-64
2022/03/30 07:26:30;;;;;;;;;20.60;16.60;;;;;6.79;66.26;98805.63;5094735;28;8836;-63
2022/03/30 07:28:59;;;;;;;;;17.20;17.20;;;;;6.84;66.28;98804.28;5093120;28;8848;-63
2022/03/30 07:31:27;;;;;;;;;13.00;10.40;;;;;6.91;65.52;98804.63;5094419;28;8989;-63
2022/03/30 07:33:58;;;;;;;;;16.80;15.40;;;;;6.94;65.57;98801.72;5093447;28;8854;-63
2022/03/30 07:36:26;;;;;;;;;21.40;21.00;;;;;6.93;65.79;98811.47;5093357;28;8851;-63
2022/03/30 07:38:54;;;;;;;;;14.80;13.20;;;;;6.93;65.96;98807.97;5094304;28;8852;-63
2022/03/30 07:41:21;;;;;;;;;15.60;15.00;;;;;6.91;65.70;98805.44;5093397;28;8890;-63
2022/03/30 07:43:49;;;;;;;;;15.00;13.00;;;;;6.93;65.59;98803.53;5091126;28;8842;-63
2022/03/30 07:46:18;;;;;;;;;20.40;20.20;;;;;6.87;66.02;98800.53;5091197;28;8865;-63
2022/03/30 07:48:46;;;;;;;;;18.00;16.40;;;;;6.82;66.36;98800.09;5091695;28;8859;-63
2022/03/30 07:51:13;;;;;;;;;11.60;10.80;;;;;6.92;66.25;98798.38;5091542;28;8843;-64
2022/03/30 07:53:41;;;;;;;;;12.40;10.20;;;;;7.13;65.38;98792.09;5090932;28;9512;-63
2022/03/30 07:56:09;;;;;;;;;12.60;12.60;;;;;7.37;65.07;98789.22;5091230;28;8831;-63
2022/03/30 07:58:36;;;;;;;;;13.80;12.20;;;;;7.60;64.69;98783.63;5092932;28;8852;-63
2022/03/30 08:01:04;;;;;;;;;3.20;3.20;;;;;7.76;64.39;98787.44;5092743;28;8844;-63
2022/03/30 08:03:32;;;;;;;;;13.80;13.00;;;;;7.87;63.86;98790.03;5091418;28;8859;-63
2022/03/30 08:06:02;;;;;;;;;13.40;11.80;;;;;8.06;63.95;98787.44;5091350;28;9229;-63
2022/03/30 08:08:30;;;;;;;;;17.60;15.00;;;;;8.26;63.51;98775.94;5090073;28;8827;-64
2022/03/30 08:10:57;;;;;;;;;14.80;14.00;;;;;8.46;62.68;98782.97;5090274;28;8832;-63
2022/03/30 08:13:25;;;;;;;;;15.40;13.40;;;;;8.60;62.44;98773.75;5090199;28;9659;-63
2022/03/30 08:15:53;;;;;;;;;16.80;15.40;;;;;8.64;62.68;98775.16;5090244;28;8835;-63
2022/03/30 08:18:23;;;;;;;;;21.40;18.40;;;;;8.68;62.82;98769.41;5090195;28;8928;-63
2022/03/30 08:23:36;;;;;;;;;18.00;15.80;;;;;8.91;62.12;98762.88;5089075;28;8847;-63
2022/03/30 08:26:04;;;;;;;;;15.20;12.80;;;;;9.00;61.65;98763.84;5088709;28;8835;-63
2022/03/30 08:28:31;;;;;;;;;21.40;18.60;;;;;9.09;62.46;98762.97;5089788;28;9618;-63
2022/03/30 08:30:59;;;;;;;;;13.20;12.40;;;;;9.16;61.80;98762.28;5089251;28;8865;-64
2022/03/30 08:33:30;;;;;;;;;17.40;15.00;;;;;9.27;61.96;98766.59;5089661;28;8854;-62
2022/03/30 08:35:57;;;;;;;;;22.80;18.20;;;;;9.42;61.46;98765.19;5091360;28;8835;-63
2022/03/30 08:38:27;;;;;;;;;18.00;14.60;;;;;9.60;61.12;98761.63;5090823;28;8844;-64
2022/03/30 08:40:57;;;;;;;;;18.40;15.40;;;;;9.79;60.97;98763.38;5091922;28;8844;-64
2022/03/30 08:43:25;;;;;;;;;13.80;12.00;;;;;10.01;60.34;98761.16;5091314;28;8863;-64
2022/03/30 08:45:55;;;;;;;;;14.60;12.00;;;;;10.15;60.45;98755.38;5092217;28;8835;-63
2022/03/30 08:48:23;;;;;;;;;18.20;15.60;;;;;10.31;60.02;98754.75;5094036;28;8839;-63
2022/03/30 08:50:56;;;;;;;;;18.40;16.80;;;;;10.51;59.50;98753.63;5091021;28;8844;-63
2022/03/30 08:53:23;;;;;;;;;15.40;14.00;;;;;10.70;59.32;98753.50;5093012;28;8843;-63
2022/03/30 08:55:51;;;;;;;;;19.80;18.40;;;;;10.88;58.99;98752.50;5093710;28;9517;-64
2022/03/30 08:58:19;;;;;;;;;12.80;12.80;;;;;11.11;58.61;98752.84;5071782;28;8839;-63
2022/03/30 09:00:47;;;;;;;;;17.50;14.50;;;;;11.34;58.23;98749.53;5082201;28;9450;-63
2022/03/30 09:03:15;;;;;;;;;17.00;11.75;;;;;11.61;58.23;98756.56;5091576;28;8844;-63
2022/03/30 09:05:43;;;;;;;;;18.50;16.50;;;;;11.81;57.67;98755.34;5090930;28;8815;-62
2022/03/30 09:08:11;;;;;;;;;18.00;12.75;;;;;11.98;57.74;98765.94;5091986;28;9430;-63
2022/03/30 09:10:39;;;;;;;;;16.50;15.25;;;;;12.14;56.78;98744.66;5091577;28;8854;-61
2022/03/30 09:13:07;;;;;;;;;12.00;11.50;;;;;12.28;57.07;98749.38;5089892;28;8847;-61
2022/03/30 09:15:35;;;;;;;;;14.50;13.50;;;;;12.43;57.11;98745.94;5087637;28;8854;-63
2022/03/30 09:18:03;;;;;;;;;16.00;14.00;;;;;12.56;56.88;98742.78;5086643;28;9210;-63
2022/03/30 09:20:34;;;;;;;;;14.00;12.50;;;;;12.64;56.76;98738.31;5065020;28;8933;-64
2022/03/30 09:23:02;;;;;;;;;12.25;12.25;;;;;12.82;56.42;98740.81;5073161;28;8861;-63
2022/03/30 09:25:43;;;;;;;;;15.50;13.50;;;;;13.04;55.31;98732.19;5085658;28;8846;-63
2022/03/30 09:28:10;;;;;;;;;17.50;13.00;;;;;13.25;55.60;98738.72;5076412;28;9354;-63
2022/03/30 09:30:38;;;;;;;;;10.00;7.50;;;;;13.52;55.30;98729.47;5089273;28;8842;-63
2022/03/30 09:33:06;;;;;;;;;11.00;10.00;;;;;13.88;54.34;98730.72;5083973;28;9269;-63
2022/03/30 09:35:34;;;;;;;;;13.00;13.00;;;;;14.21;53.77;98716.22;5089206;28;8916;-63
2022/03/30 09:38:02;;;;;;;;;14.50;12.50;;;;;14.52;53.63;98725.09;5089062;28;9235;-63
2022/03/30 09:40:30;;;;;;;;;10.75;10.50;;;;;14.64;52.94;98721.00;5089677;28;8823;-63
2022/03/30 09:42:58;;;;;;;;;15.50;14.00;;;;;14.56;53.61;98726.41;5090339;28;8843;-63
2022/03/30 09:45:26;;;;;;;;;10.50;10.50;;;;;14.39;53.54;98720.31;5089739;28;8836;-63
2022/03/30 09:47:54;;;;;;;;;15.25;13.25;;;;;14.29;53.91;98725.06;5091056;28;8835;-63
2022/03/30 09:50:21;;;;;;;;;14.00;12.00;;;;;14.24;54.42;98732.78;5091112;28;8843;-63
2022/03/30 09:52:51;;;;;;;;;15.50;15.00;;;;;14.27;54.05;98726.25;5091512;28;8875;-63
2022/03/30 09:55:20;;;;;;;;;13.00;12.25;;;;;14.39;54.02;98716.78;5090576;28;8843;-62
2022/03/30 09:57:50;;;;;;;;;15.25;14.25;;;;;14.55;53.28;98719.38;5090466;28;8823;-64
2022/03/30 10:00:18;;;;;;;;;15.50;14.25;;;;;14.85;53.02;98705.94;5089128;28;8835;-63
2022/03/30 10:02:46;;;;;;;;;19.00;17.00;;;;;15.34;52.02;98701.03;5089800;28;8836;-61
2022/03/30 10:05:14;;;;;;;;;17.75;14.50;;;;;16.04;50.67;98694.19;5090588;28;8974;-62
2022/03/30 10:07:42;;;;;;;;;12.75;9.75;;;;;16.72;49.80;98680.16;5090780;28;8854;-61
2022/03/30 10:10:10;;;;;;;;;7.00;7.00;;;;;17.33;48.54;98695.59;5089483;28;8855;-61
2022/03/30 10:12:37;;;;;;;;;10.50;8.50;;;;;17.94;48.14;98689.44;5090291;28;8974;-61
2022/03/30 10:15:05;;;;;;;;;15.75;14.00;;;;;18.48;46.70;98682.25;5090647;28;8861;-61
2022/03/30 10:17:36;;;;;;;;;17.75;16.00;;;;;19.04;46.37;98674.69;5090847;28;8862;-62
2022/03/30 10:20:03;;;;;;;;;20.00;16.00;;;;;19.47;45.89;98666.00;5089362;28;8835;-61
2022/03/30 10:22:32;;;;;;;;;23.25;20.00;;;;;19.92;45.01;98661.53;5088996;28;8832;-61
2022/03/30 10:25:01;;;;;;;;;16.00;14.00;;;;;20.29;44.55;98664.34;5089196;28;8924;-62
2022/03/30 10:27:30;;;;;;;;;16.60;15.20;;;;;19.87;45.13;98667.56;5093307;28;8855;-62
2022/03/30 10:29:57;;;;;;;;;21.00;19.00;;;;;19.17;46.81;98667.41;5091017;28;8831;-63
2022/03/30 10:32:27;;;;;;;;;15.25;12.50;;;;;19.09;46.99;98664.09;5092998;28;8851;-63
2022/03/30 10:34:56;;;;;;;;;20.00;17.00;;;;;19.46;46.00;98658.09;5092064;28;8819;-61
2022/03/30 10:37:24;;;;;;;;;17.75;15.75;;;;;19.53;45.58;98657.06;5092273;28;8871;-61
2022/03/30 10:39:52;;;;;;;;;15.75;15.00;;;;;19.90;45.27;98650.09;5091057;28;9192;-62
2022/03/30 10:42:21;;;;;;;;;15.00;13.00;;;;;20.13;44.91;98650.47;5092039;28;8910;-62
2022/03/30 10:44:49;;;;;;;;;21.40;18.40;;;;;20.55;43.74;98641.75;5090943;28;8932;-61
2022/03/30 10:47:17;;;;;;;;;17.40;14.20;;;;;20.97;43.22;98648.13;5086082;28;9559;-61
2022/03/30 10:49:45;;;;;;;;;15.80;13.20;;;;;21.45;42.46;98646.50;5090322;28;8832;-62
2022/03/30 10:52:13;;;;;;;;;15.40;15.00;;;;;21.68;42.00;98641.31;5088891;28;8843;-61
2022/03/30 10:54:43;;;;;;;;;16.80;15.20;;;;;21.46;42.41;98631.06;5089736;28;8835;-61
2022/03/30 10:57:11;;;;;;;;;14.00;12.60;;;;;20.96;43.34;98649.19;5088948;28;8844;-62
2022/03/30 10:59:39;;;;;;;;;20.40;16.60;;;;;20.72;43.99;98638.31;5089998;28;9684;-61
2022/03/30 11:02:07;;;;;;;;;19.00;17.20;;;;;21.25;42.76;98639.63;5090221;28;8831;-62
2022/03/30 11:04:35;;;;;;;;;21.80;18.20;;;;;21.88;41.65;98632.97;5089057;28;8901;-62
2022/03/30 11:07:03;;;;;;;;;16.80;16.80;;;;;22.42;40.58;98617.50;5091211;28;8942;-61
2022/03/30 11:09:33;;;;;;;;;21.60;19.00;;;;;22.91;40.01;98619.09;5092919;28;8977;-62
2022/03/30 11:12:00;;;;;;;;;14.80;14.00;;;;;23.13;38.96;98612.03;5092684;28;8870;-61
2022/03/30 11:14:28;;;;;;;;;12.40;10.00;;;;;23.39;39.08;98606.19;5091353;28;8839;-61
2022/03/30 11:16:57;;;;;;;;;18.20;16.20;;;;;23.69;38.30;98604.16;5090004;28;8928;-61
2022/03/30 11:19:29;;;;;;;;;19.60;16.40;;;;;23.96;38.21;98599.91;5089904;28;8839;-61
2022/03/30 11:21:56;;;;;;;;;15.80;14.80;;;;;24.28;37.80;98601.09;5090776;28;8850;-61
2022/03/30 11:24:24;;;;;;;;;16.80;15.40;;;;;24.55;37.77;98594.00;5090902;28;8866;-61
2022/03/30 11:26:52;;;;;;;;;17.00;17.00;;;;;24.81;37.26;98591.53;5079700;28;9621;-61
2022/03/30 11:29:20;;;;;;;;;18.20;16.00;;;;;24.98;37.49;98600.56;5069082;28;9527;-61
2022/03/30 11:31:48;;;;;;;;;20.40;19.40;;;;;24.99;36.32;98595.94;5068191;28;8817;-62
2022/03/30 11:34:16;;;;;;;;;12.80;11.60;;;;;25.01;37.23;98601.94;5064504;28;9113;-61
2022/03/30 11:36:43;;;;;;;;;17.40;16.20;;;;;24.97;36.61;98589.91;5068830;28;9518;-61
2022/03/30 11:39:11;;;;;;;;;18.40;16.20;;;;;24.92;37.01;98596.09;5069402;28;8838;-62
2022/03/30 11:41:39;;;;;;;;;14.20;14.20;;;;;25.15;36.11;98584.19;5070165;28;9561;-61
2022/03/30 11:46:52;;;;;;;;;10.20;7.80;;;;;25.56;36.24;98584.59;5070956;28;9698;-61
2022/03/30 11:49:20;;;;;;;;;17.60;15.20;;;;;25.76;35.47;98579.44;5072196;28;8930;-64